Time;durP1;ratioP1;P1;durP2;ratioP2;P2;SDS_P1;SDS_P2;PMS_P1;PMS_P2;Temp;Humidity;BMP_temperature;BMP_pressure;BME280_temperature;BME280_humidity;BME280_pressure;Samples;Min_cycle;Max_cycle;Signal;HPM_P1;HPM_P2
2022/04/15 00:01:49;;;;;;;3.87;2.63;;;;;;;13.08;43.16;94941.28;5014084;28;20206;-62
2022/04/15 00:04:15;;;;;;;5.07;2.57;;;;;;;13.14;43.59;94939.00;5032046;28;20614;-63
2022/04/15 00:06:41;;;;;;;5.63;2.50;;;;;;;13.03;43.88;94930.66;5031772;28;20272;-63
2022/04/15 00:09:06;;;;;;;2.93;2.63;;;;;;;13.04;45.22;94922.06;5038837;23;20225;-62
2022/04/15 00:11:32;;;;;;;2.73;2.20;;;;;;;13.11;45.29;94925.69;5031868;28;20194;-62
2022/04/15 00:13:58;;;;;;;4.50;2.20;;;;;;;13.12;43.14;94951.09;5032028;28;20624;-64
2022/04/15 00:16:24;;;;;;;7.47;2.67;;;;;;;12.92;43.42;94949.47;5031649;28;20206;-62
2022/04/15 00:18:49;;;;;;;4.73;2.30;;;;;;;12.81;43.65;94941.97;5032182;28;20265;-63
2022/04/15 00:21:15;;;;;;;5.83;2.70;;;;;;;12.76;44.20;94936.47;5031653;28;20672;-63
2022/04/15 00:23:41;;;;;;;3.87;2.40;;;;;;;12.62;44.15;94939.44;5013555;28;20637;-63
2022/04/15 00:26:06;;;;;;;3.27;2.47;;;;;;;12.59;44.88;94937.97;5013645;28;20226;-63
2022/04/15 00:28:32;;;;;;;3.33;2.50;;;;;;;12.59;45.09;94932.84;5013851;28;20233;-61
2022/04/15 00:30:58;;;;;;;5.73;2.20;;;;;;;12.30;45.20;94934.59;5031458;28;20217;-62
2022/04/15 00:33:23;;;;;;;3.53;2.40;;;;;;;12.26;45.96;94922.25;5031321;28;20186;-64
2022/04/15 00:35:49;;;;;;;2.40;2.20;;;;;;;12.13;46.41;94911.50;5031265;28;20281;-62
2022/04/15 00:38:15;;;;;;;4.13;2.80;;;;;;;12.14;46.49;94915.69;5031725;28;20268;-64
2022/04/15 00:40:41;;;;;;;3.37;2.40;;;;;;;12.11;46.38;94924.38;5031291;28;20217;-63
2022/04/15 00:43:06;;;;;;;3.07;2.50;;;;;;;12.34;46.04;94930.84;5013782;28;20293;-63
2022/04/15 00:45:31;;;;;;;4.17;2.30;;;;;;;12.26;46.56;94925.59;5031510;28;20758;-62
2022/04/15 00:47:59;;;;;;;3.27;2.40;;;;;;;12.33;47.06;94910.56;5031463;28;20214;-62
2022/04/15 00:50:35;;;;;;;4.87;2.80;;;;;;;12.39;47.42;94917.69;5012931;28;20720;-63
2022/04/15 00:53:06;;;;;;;5.27;2.60;;;;;;;12.50;47.08;94922.66;5032158;28;20218;-62
2022/04/15 00:55:33;;;;;;;3.33;2.40;;;;;;;12.53;47.31;94919.84;5017263;28;20201;-62
2022/04/15 00:58:00;;;;;;;5.00;3.10;;;;;;;12.46;47.25;94927.22;5035230;28;20262;-63
2022/04/15 01:00:28;;;;;;;5.53;2.87;;;;;;;12.60;46.44;94931.91;5035100;28;20228;-63
2022/04/15 01:02:56;;;;;;;6.80;3.37;;;;;;;12.40;47.85;94911.66;5034710;28;20183;-62
2022/04/15 01:05:22;;;;;;;15.73;3.90;;;;;;;12.28;49.34;94905.09;5034613;28;20209;-60
2022/04/15 01:07:49;;;;;;;6.90;3.80;;;;;;;12.19;48.54;94928.81;5034624;28;20579;-61
2022/04/15 01:10:16;;;;;;;9.10;4.27;;;;;;;11.97;48.71;94918.88;5034476;28;20271;-63
2022/04/15 01:12:47;;;;;;;6.17;3.47;;;;;;;11.92;48.67;94921.00;5034930;28;20194;-61
2022/04/15 01:15:13;;;;;;;7.27;3.70;;;;;;;11.71;49.26;94905.81;5034389;28;20238;-63
2022/04/15 01:17:40;;;;;;;5.07;3.97;;;;;;;11.73;49.73;94914.13;5034864;28;20198;-61
2022/04/15 01:20:08;;;;;;;5.13;3.43;;;;;;;11.75;50.67;94907.16;5034774;28;20182;-62
2022/04/15 01:22:44;;;;;;;12.73;4.47;;;;;;;11.36;50.54;94907.94;5034886;28;20236;-64
2022/04/15 01:25:12;;;;;;;5.33;3.60;;;;;;;11.60;50.31;94910.97;5034677;28;20253;-64
2022/04/15 01:27:46;;;;;;;9.13;3.87;;;;;;;11.68;52.24;94883.94;5034616;28;20546;-62
2022/04/15 01:30:14;;;;;;;19.43;4.10;;;;;;;11.86;50.92;94919.00;5034241;28;20177;-62
2022/04/15 01:32:40;;;;;;;8.70;4.10;;;;;;;11.63;50.66;94920.91;5034614;28;20300;-64
2022/04/15 01:35:06;;;;;;;6.07;3.77;;;;;;;11.71;50.27;94928.72;5016749;28;20206;-62
2022/04/15 01:37:32;;;;;;;7.60;3.80;;;;;;;11.89;51.83;94904.25;5016461;28;20308;-60
2022/04/15 01:39:58;;;;;;;13.57;4.50;;;;;;;11.78;51.46;94906.88;5034200;28;20174;-61
2022/04/15 01:42:25;;;;;;;6.33;3.37;;;;;;;11.95;51.13;94913.09;5034365;28;20757;-63
2022/04/15 01:44:50;;;;;;;7.97;3.83;;;;;;;11.76;51.27;94899.38;5033977;28;20182;-64
2022/04/15 01:47:16;;;;;;;12.07;3.90;;;;;;;11.64;50.65;94912.31;5034095;28;20209;-63
2022/04/15 01:49:43;;;;;;;7.03;3.70;;;;;;;11.65;51.05;94899.47;5033775;28;20378;-63
2022/04/15 01:52:09;;;;;;;7.10;4.20;;;;;;;11.59;51.73;94889.81;5033899;28;20743;-62
2022/04/15 01:54:35;;;;;;;9.80;4.10;;;;;;;11.60;51.90;94890.59;5016233;28;20180;-63
2022/04/15 01:57:01;;;;;;;8.80;3.87;;;;;;;11.71;51.20;94900.72;5033814;28;20210;-62
2022/04/15 01:59:27;;;;;;;7.67;3.20;;;;;;;11.76;50.16;94917.22;5033807;28;20187;-62
2022/04/15 02:01:55;;;;;;;3.87;2.63;;;;;;;11.69;49.79;94928.88;5015837;28;20236;-61
2022/04/15 02:04:22;;;;;;;4.90;3.40;;;;;;;11.75;49.85;94918.16;5033320;28;20652;-62
2022/04/15 02:06:48;;;;;;;4.27;3.10;;;;;;;11.74;49.14;94933.56;5033758;28;20202;-63
2022/04/15 02:09:13;;;;;;;6.97;3.20;;;;;;;11.88;49.41;94927.31;5033529;28;20288;-61
2022/04/15 02:11:39;;;;;;;4.77;3.30;;;;;;;11.74;51.23;94903.00;5033474;28;20281;-60
2022/04/15 02:14:05;;;;;;;6.50;3.00;;;;;;;11.60;50.58;94910.97;5015846;28;20190;-63
2022/04/15 02:16:30;;;;;;;28.93;3.27;;;;;;;11.69;48.74;94939.06;5015666;28;20209;-62
2022/04/15 02:18:56;;;;;;;4.50;2.57;;;;;;;11.39;48.86;94931.38;5033300;28;20504;-62
2022/04/15 02:21:21;;;;;;;6.23;2.70;;;;;;;11.24;48.96;94925.03;5033581;28;20197;-62
2022/04/15 02:23:46;;;;;;;3.57;2.40;;;;;;;11.06;49.21;94921.47;5033682;28;20181;-62
2022/04/15 02:26:12;;;;;;;2.53;2.33;;;;;;;10.84;50.29;94914.81;5033330;28;20210;-60
2022/04/15 02:28:37;;;;;;;4.83;2.80;;;;;;;10.57;51.08;94895.88;5033743;28;20210;-61
2022/04/15 02:31:03;;;;;;;4.07;2.73;;;;;;;10.27;52.52;94880.53;5033002;28;20269;-61
2022/04/15 02:33:28;;;;;;;6.37;2.60;;;;;;;9.99;53.89;94867.47;5033353;28;20178;-62
2022/04/15 02:35:54;;;;;;;3.90;2.97;;;;;;;9.66;55.86;94854.88;5032894;28;20194;-61
2022/04/15 02:38:19;;;;;;;3.63;2.53;;;;;;;9.56;56.70;94853.97;5015280;28;20253;-60
2022/04/15 02:40:45;;;;;;;4.23;2.43;;;;;;;9.36;57.40;94846.28;5015327;28;20565;-62
2022/04/15 02:43:11;;;;;;;7.47;3.13;;;;;;;9.42;57.61;94856.78;5033588;28;20183;-60
2022/04/15 02:45:37;;;;;;;4.87;3.00;;;;;;;9.32;58.48;94860.94;5032861;28;20218;-62
2022/04/15 02:48:02;;;;;;;5.23;3.00;;;;;;;9.18;58.82;94854.38;5033023;28;20301;-63
2022/04/15 02:50:28;;;;;;;4.47;2.80;;;;;;;9.13;59.65;94865.81;5032807;28;20198;-62
2022/04/15 02:52:54;;;;;;;3.70;2.47;;;;;;;9.07;60.08;94867.06;5032989;28;20186;-62
2022/04/15 02:55:20;;;;;;;4.27;3.00;;;;;;;8.95;60.60;94874.78;5014828;28;20268;-64
2022/04/15 02:57:45;;;;;;;4.33;3.27;;;;;;;8.86;61.67;94878.00;5033075;28;20241;-63
2022/04/15 03:00:12;;;;;;;5.13;3.10;;;;;;;8.67;61.80;94868.41;5032496;28;20577;-62
2022/04/15 03:02:38;;;;;;;4.53;2.80;;;;;;;8.62;62.33;94883.16;5032747;28;20183;-64
2022/04/15 03:05:04;;;;;;;5.70;2.80;;;;;;;8.60;62.00;94884.19;5032566;28;20232;-62
2022/04/15 03:07:29;;;;;;;6.60;3.07;;;;;;;8.68;62.47;94890.31;5032564;28;20191;-62
2022/04/15 03:09:55;;;;;;;2.67;2.43;;;;;;;8.60;61.28;94896.84;5014695;28;20182;-63
2022/04/15 03:12:20;;;;;;;8.57;3.10;;;;;;;8.71;61.76;94912.06;5032377;28;20623;-63
2022/04/15 03:14:49;;;;;;;4.77;2.57;;;;;;;8.69;61.25;94916.44;5032375;28;20178;-62
2022/04/15 03:17:14;;;;;;;6.90;2.73;;;;;;;8.51;61.47;94908.47;5031540;28;20202;-63
2022/04/15 03:19:40;;;;;;;4.33;2.57;;;;;;;8.47;62.24;94909.59;5032367;28;20564;-64
2022/04/15 03:22:05;;;;;;;2.87;2.20;;;;;;;8.38;62.50;94900.16;5032443;28;20213;-63
2022/04/15 03:24:31;;;;;;;4.33;2.27;;;;;;;8.33;62.94;94897.13;5032384;28;20659;-63
2022/04/15 03:26:57;;;;;;;6.17;2.70;;;;;;;8.27;62.90;94893.31;5014482;28;20687;-65
2022/04/15 03:29:22;;;;;;;5.13;2.77;;;;;;;8.41;63.75;94892.31;5032293;28;20206;-61
2022/04/15 03:31:48;;;;;;;3.90;2.37;;;;;;;8.39;63.50;94901.75;5032137;28;20349;-63
2022/04/15 03:34:13;;;;;;;5.90;3.20;;;;;;;8.33;63.10;94907.25;5032473;28;20308;-64
2022/04/15 03:36:40;;;;;;;5.83;3.70;;;;;;;8.50;62.19;94922.06;5014597;28;20217;-63
2022/04/15 03:39:06;;;;;;;3.87;2.50;;;;;;;8.55;62.34;94941.97;5014416;28;20187;-61
2022/04/15 03:41:32;;;;;;;3.90;2.50;;;;;;;8.72;61.35;94946.66;5031695;28;20201;-61
2022/04/15 03:43:57;;;;;;;4.07;2.50;;;;;;;8.91;60.84;94962.13;5032331;28;20197;-62
2022/04/15 03:46:23;;;;;;;6.30;2.83;;;;;;;8.92;58.85;94973.88;5031914;28;20190;-63
2022/04/15 03:48:48;;;;;;;5.00;3.00;;;;;;;8.83;59.31;94979.59;5014208;28;20206;-63
2022/04/15 03:51:14;;;;;;;4.83;3.13;;;;;;;8.84;59.95;94971.09;5013890;28;20201;-62
2022/04/15 03:53:39;;;;;;;3.90;2.73;;;;;;;8.86;58.47;94984.47;5032134;28;20536;-62
2022/04/15 03:56:07;;;;;;;7.63;2.87;;;;;;;8.89;58.82;94979.16;5031626;28;20204;-63
2022/04/15 03:58:35;;;;;;;9.07;2.53;;;;;;;8.98;58.60;94981.03;5030464;28;20247;-61
2022/04/15 04:01:01;;;;;;;3.83;2.77;;;;;;;8.96;58.32;94991.31;5013789;28;20719;-62
2022/04/15 04:03:26;;;;;;;8.30;2.90;;;;;;;9.00;58.78;94995.22;5031920;28;20602;-63
2022/04/15 04:05:52;;;;;;;3.73;2.87;;;;;;;9.05;57.90;95010.91;5031589;28;20204;-62
2022/04/15 04:08:17;;;;;;;5.63;2.80;;;;;;;9.09;57.70;94994.53;5032098;28;20745;-63
2022/04/15 04:10:43;;;;;;;6.93;2.87;;;;;;;9.07;57.20;95009.06;5031633;28;20190;-63
2022/04/15 04:13:08;;;;;;;4.00;2.63;;;;;;;9.08;58.44;95000.56;5031936;28;20193;-63
2022/04/15 04:15:34;;;;;;;12.07;3.37;;;;;;;9.01;57.88;94998.56;5031511;28;20206;-63
2022/04/15 04:18:00;;;;;;;8.93;3.30;;;;;;;9.04;57.69;95004.22;5031772;28;20269;-62
2022/04/15 04:20:27;;;;;;;7.33;3.37;;;;;;;9.04;57.70;95013.56;5013787;28;20202;-63
2022/04/15 04:22:52;;;;;;;6.47;3.00;;;;;;;8.81;58.74;94994.94;5031698;28;20248;-62
2022/04/15 04:25:18;;;;;;;5.07;2.87;;;;;;;8.65;59.23;94981.75;5031792;28;20664;-61
2022/04/15 04:27:43;;;;;;;4.67;2.50;;;;;;;8.73;59.10;94978.66;5033659;28;20190;-62
2022/04/15 04:30:14;;;;;;;8.63;2.87;;;;;;;8.76;59.87;94973.38;5035524;28;20304;-61
2022/04/15 04:32:41;;;;;;;6.37;3.03;;;;;;;8.64;61.45;94951.47;5035470;28;20548;-60
2022/04/15 04:35:07;;;;;;;7.60;3.50;;;;;;;8.59;61.48;94959.38;5035214;28;20206;-61
2022/04/15 04:37:33;;;;;;;4.67;3.60;;;;;;;8.55;61.94;94952.13;5017528;28;20715;-60
2022/04/15 04:39:58;;;;;;;7.77;2.50;;;;;;;8.30;63.32;94942.94;5035090;28;20174;-61
2022/04/15 04:42:25;;;;;;;4.80;2.97;;;;;;;8.35;67.87;94891.03;5034876;28;20264;-66
2022/04/15 04:44:52;;;;;;;9.20;2.67;;;;;;;8.52;67.88;94980.22;5017189;28;20652;-65
2022/04/15 04:47:19;;;;;;;7.93;2.67;;;;;;;8.36;65.44;94985.56;5034792;28;20352;-64
2022/04/15 04:49:45;;;;;;;6.17;2.70;;;;;;;8.25;66.35;94960.19;5016951;28;20303;-68
2022/04/15 04:52:11;;;;;;;12.90;2.97;;;;;;;8.21;66.62;94964.63;5034723;28;20664;-66
2022/04/15 04:54:37;;;;;;;6.03;2.77;;;;;;;8.26;66.63;94962.59;5034789;28;20219;-65
2022/04/15 04:57:03;;;;;;;5.23;3.10;;;;;;;8.23;67.19;94956.91;5050957;22;20712;-64
2022/04/15 04:59:31;;;;;;;4.53;3.17;;;;;;;8.46;77.78;94837.06;5035075;28;20186;-64
2022/04/15 05:01:57;;;;;;;4.17;2.77;;;;;;;8.97;72.46;95098.59;5035095;28;20213;-64
2022/04/15 05:04:22;;;;;;;6.00;2.87;;;;;;;8.87;66.67;95133.94;5034555;28;20183;-63
2022/04/15 05:06:49;;;;;;;7.73;3.33;;;;;;;8.74;67.12;95109.56;5017062;28;20221;-62
2022/04/15 05:09:15;;;;;;;15.83;3.13;;;;;;;8.75;65.83;95109.44;5034555;28;20773;-65
2022/04/15 05:11:41;;;;;;;7.53;3.20;;;;;;;8.66;65.91;95104.22;5034816;28;20297;-66
2022/04/15 05:14:07;;;;;;;7.73;3.13;;;;;;;8.71;67.45;95077.63;5034607;28;20183;-64
2022/04/15 05:16:32;;;;;;;5.43;3.73;;;;;;;8.64;65.96;95086.59;5031135;23;20296;-62
2022/04/15 05:18:58;;;;;;;5.00;2.67;;;;;;;8.50;66.83;95074.06;5034469;28;20561;-66
2022/04/15 05:21:23;;;;;;;3.43;2.63;;;;;;;8.55;67.88;95063.59;5067205;22;20230;-67
2022/04/15 05:23:48;;;;;;;9.97;3.37;;;;;;;8.43;69.78;95023.03;5070241;22;20649;-67
2022/04/15 05:26:14;;;;;;;6.73;2.57;;;;;;;8.65;70.40;95014.69;5089264;22;21032;-66
2022/04/15 05:28:41;;;;;;;6.13;3.13;;;;;;;8.77;72.00;94997.78;5097822;22;20654;-64
2022/04/15 05:31:13;;;;;;;7.93;3.33;;;;;;;8.84;68.99;95055.56;5061817;23;20229;-66
2022/04/15 05:33:39;;;;;;;5.90;3.27;;;;;;;8.94;71.88;95002.47;5105587;22;20260;-65
2022/04/15 05:36:05;;;;;;;10.47;3.47;;;;;;;9.27;67.69;95064.22;5094376;22;20770;-66
2022/04/15 05:38:30;;;;;;;9.50;3.13;;;;;;;9.18;65.88;95074.22;5067165;23;20216;-64
2022/04/15 05:40:56;;;;;;;6.10;3.10;;;;;;;9.42;66.61;95079.25;5077935;23;20989;-65
2022/04/15 05:43:22;;;;;;;4.10;2.60;;;;;;;9.41;65.70;95088.59;5074720;23;20249;-67
2022/04/15 05:45:47;;;;;;;6.87;2.90;;;;;;;9.56;65.64;95112.03;5056761;23;20233;-65
2022/04/15 05:48:12;;;;;;;4.57;3.13;;;;;;;9.61;66.90;95064.28;5034448;28;20276;-64
2022/04/15 05:50:38;;;;;;;7.63;2.80;;;;;;;9.79;65.71;95108.59;5043144;23;20729;-65
2022/04/15 05:53:03;;;;;;;3.43;2.80;;;;;;;9.61;65.36;95108.25;5050125;23;20233;-67
2022/04/15 05:55:29;;;;;;;7.47;3.40;;;;;;;9.81;66.29;95061.06;5017054;28;20210;-66
2022/04/15 05:57:54;;;;;;;4.17;2.73;;;;;;;10.07;65.49;95087.84;5033873;28;20244;-64
2022/04/15 06:00:20;;;;;;;3.93;3.00;;;;;;;10.17;65.86;95073.53;5049293;23;20261;-64
2022/04/15 06:02:45;;;;;;;6.97;3.17;;;;;;;10.19;65.15;95096.28;5053331;28;20200;-63
2022/04/15 06:05:11;;;;;;;4.93;2.53;;;;;;;10.26;65.53;95087.28;5042232;23;20233;-66
2022/04/15 06:07:36;;;;;;;7.43;3.07;;;;;;;10.37;63.32;95130.47;5033828;28;20563;-65
2022/04/15 06:10:03;;;;;;;5.83;2.67;;;;;;;10.49;61.51;95154.94;5033163;28;20601;-64
2022/04/15 06:12:54;;;;;;;7.53;2.83;;;;;;;10.42;61.46;95154.63;5033810;28;20703;-64
2022/04/15 06:15:21;;;;;;;5.13;2.53;;;;;;;10.40;61.59;95148.03;5041151;23;20600;-64
2022/04/15 06:17:47;;;;;;;3.70;2.70;;;;;;;10.57;60.81;95168.69;5026167;22;20221;-63
2022/04/15 06:20:13;;;;;;;6.30;2.90;;;;;;;10.49;59.75;95177.81;5033374;28;20717;-65
2022/04/15 06:22:41;;;;;;;5.63;2.57;;;;;;;10.51;60.69;95164.06;5049681;23;20314;-65
2022/04/15 06:25:09;;;;;;;3.87;2.97;;;;;;;10.70;61.04;95153.31;5053508;28;20174;-65
2022/04/15 06:27:34;;;;;;;7.03;2.87;;;;;;;10.99;63.91;95088.25;5052124;28;20196;-66
2022/04/15 06:30:00;;;;;;;6.63;4.00;;;;;;;11.08;59.39;95194.38;5052687;28;20173;-64
2022/04/15 06:32:26;;;;;;;8.77;3.63;;;;;;;11.15;58.74;95203.13;5054109;28;20209;-65
2022/04/15 06:34:51;;;;;;;5.23;3.50;;;;;;;11.18;58.74;95195.28;5053094;28;20166;-66
2022/04/15 06:37:16;;;;;;;8.97;4.03;;;;;;;11.23;58.12;95205.88;5064843;23;20313;-63
2022/04/15 06:39:42;;;;;;;7.27;3.83;;;;;;;11.15;58.50;95190.41;5053175;28;20176;-64
2022/04/15 06:42:08;;;;;;;5.90;3.50;;;;;;;11.29;58.97;95156.25;5053432;28;20236;-63
2022/04/15 06:44:36;;;;;;;8.10;3.80;;;;;;;11.40;57.76;95190.13;5053206;28;20177;-65
2022/04/15 06:47:02;;;;;;;7.13;3.30;;;;;;;11.61;56.84;95206.25;5053371;28;20691;-63
2022/04/15 06:49:28;;;;;;;5.30;3.20;;;;;;;11.49;58.12;95183.50;5053186;28;20292;-64
2022/04/15 06:51:53;;;;;;;7.17;3.30;;;;;;;11.71;56.52;95217.34;5045186;23;20225;-64
2022/04/15 06:54:19;;;;;;;4.20;2.77;;;;;;;11.72;54.29;95257.16;5032826;28;20206;-62
2022/04/15 06:56:44;;;;;;;4.67;3.23;;;;;;;11.50;55.32;95228.38;5033269;28;20288;-65
2022/04/15 06:59:09;;;;;;;9.47;5.80;;;;;;;11.66;56.09;95198.25;5032867;28;20178;-62
2022/04/15 07:01:35;;;;;;;10.37;6.00;;;;;;;11.95;54.73;95231.56;5032675;28;20586;-62
2022/04/15 07:04:02;;;;;;;9.10;4.30;;;;;;;12.00;52.89;95275.34;5032783;28;20220;-62
2022/04/15 07:06:29;;;;;;;10.67;3.93;;;;;;;12.08;53.47;95248.28;5039919;23;20650;-62
2022/04/15 07:08:54;;;;;;;7.67;3.33;;;;;;;12.04;53.91;95236.72;5032357;28;20607;-66
2022/04/15 07:11:20;;;;;;;7.37;2.97;;;;;;;12.34;51.98;95282.66;5032912;28;20252;-64
2022/04/15 07:13:45;;;;;;;7.90;3.10;;;;;;;12.34;51.94;95272.47;5032879;28;20185;-63
2022/04/15 07:16:11;;;;;;;4.87;3.00;;;;;;;12.44;52.31;95263.13;5031520;28;20206;-63
2022/04/15 07:18:37;;;;;;;9.57;3.67;;;;;;;12.46;51.28;95283.41;5033363;23;20283;-64
2022/04/15 07:21:02;;;;;;;6.77;3.53;;;;;;;12.15;53.84;95190.78;5032816;28;20289;-64
2022/04/15 07:23:28;;;;;;;10.70;5.13;;;;;;;12.39;54.11;95196.41;5032729;28;20178;-64
2022/04/15 07:25:53;;;;;;;16.27;4.87;;;;;;;12.70;52.21;95240.59;5036266;28;20201;-62
2022/04/15 07:28:19;;;;;;;8.10;4.30;;;;;;;12.82;55.03;95173.22;5032360;28;20609;-63
2022/04/15 07:30:45;;;;;;;12.70;5.17;;;;;;;12.94;55.90;95156.84;5032183;28;20196;-62
2022/04/15 07:33:10;;;;;;;12.83;6.17;;;;;;;13.14;55.11;95168.75;5032302;28;20538;-64
2022/04/15 07:35:35;;;;;;;11.63;6.30;;;;;;;13.33;54.74;95191.72;5032205;28;20205;-63
2022/04/15 07:38:01;;;;;;;13.43;5.50;;;;;;;13.46;52.74;95230.59;5033288;28;20190;-65
2022/04/15 07:40:28;;;;;;;12.57;6.17;;;;;;;13.19;53.12;95212.53;5031360;28;20209;-63
2022/04/15 07:42:59;;;;;;;9.18;4.97;;;;;;;13.19;54.03;95181.13;5033049;28;20202;-62
2022/04/15 07:45:25;;;;;;;11.88;5.63;;;;;;;13.31;52.15;95231.91;5032245;28;20690;-62
2022/04/15 07:47:50;;;;;;;10.88;5.57;;;;;;;13.54;51.36;95246.97;5032743;28;20182;-62
2022/04/15 07:50:22;;;;;;;12.03;5.67;;;;;;;13.78;51.53;95239.72;5031385;28;20185;-64
2022/04/15 07:52:47;;;;;;;7.18;5.13;;;;;;;13.61;51.79;95222.53;5030885;28;20190;-64
2022/04/15 07:55:12;;;;;;;15.50;5.70;;;;;;;13.58;52.71;95215.13;5032510;28;20186;-63
2022/04/15 07:57:38;;;;;;;12.67;5.80;;;;;;;13.66;51.43;95241.63;5032346;28;20180;-64
2022/04/15 08:00:04;;;;;;;13.68;5.88;;;;;;;14.19;52.95;95186.56;5030517;28;20235;-63
2022/04/15 08:02:30;;;;;;;11.07;5.72;;;;;;;14.31;48.93;95307.44;5034892;28;20707;-63
2022/04/15 08:04:56;;;;;;;24.42;14.02;;;;;;;14.42;50.16;95243.34;5038872;28;20662;-63
2022/04/15 08:07:22;;;;;;;10.52;5.30;;;;;;;14.63;49.78;95261.84;5038783;28;20665;-62
2022/04/15 08:09:47;;;;;;;14.60;6.03;;;;;;;14.57;49.67;95270.09;5038470;28;20202;-62
2022/04/15 08:12:13;;;;;;;14.40;5.40;;;;;;;14.52;49.02;95274.81;5037446;28;20239;-63
2022/04/15 08:14:38;;;;;;;8.52;5.32;;;;;;;14.63;48.70;95282.31;5037139;28;20182;-62
2022/04/15 08:17:04;;;;;;;10.80;4.90;;;;;;;14.94;48.44;95281.16;5038617;28;20577;-63
2022/04/15 08:19:31;;;;;;;13.50;5.38;;;;;;;15.04;46.95;95312.66;5038811;28;20255;-62
2022/04/15 08:21:58;;;;;;;14.20;4.65;;;;;;;14.92;46.89;95300.16;5038449;28;20206;-63
2022/04/15 08:24:23;;;;;;;8.40;4.65;;;;;;;15.09;46.05;95302.78;5038767;28;20186;-63
2022/04/15 08:26:49;;;;;;;10.77;4.43;;;;;;;15.23;46.52;95298.16;5038623;28;20209;-63
2022/04/15 08:29:15;;;;;;;12.85;4.38;;;;;;;15.37;47.54;95260.03;5038238;28;20194;-63
2022/04/15 08:31:41;;;;;;;5.60;4.30;;;;;;;15.58;43.86;95380.25;5038674;28;20263;-64
2022/04/15 08:34:06;;;;;;;11.20;3.95;;;;;;;15.51;44.37;95344.16;5037205;28;20632;-64
2022/04/15 08:36:32;;;;;;;8.43;4.00;;;;;;;15.74;44.65;95329.19;5040109;28;20212;-63
2022/04/15 08:38:58;;;;;;;4.40;3.88;;;;;;;15.75;43.57;95341.88;5038075;28;20676;-63
2022/04/15 08:41:29;;;;;;;8.68;3.42;;;;;;;16.01;43.53;95341.97;5038167;28;20229;-64
2022/04/15 08:43:56;;;;;;;6.75;3.70;;;;;;;16.38;41.86;95334.13;5038443;28;20180;-62
2022/04/15 08:46:23;;;;;;;8.65;3.10;;;;;;;16.46;41.43;95324.69;5038165;28;20210;-64
2022/04/15 08:48:51;;;;;;;3.25;2.92;;;;;;;16.31;41.01;95215.03;5037999;28;20292;-64
2022/04/15 08:51:17;;;;;;;9.93;4.05;;;;;;;16.32;41.05;95201.28;5037972;28;20214;-62
2022/04/15 08:53:46;;;;;;;4.90;3.20;;;;;;;16.69;41.95;95160.72;5038025;28;20189;-64
2022/04/15 08:56:12;;;;;;;5.32;3.10;;;;;;;17.12;40.85;95186.25;5036744;28;20233;-63
2022/04/15 08:58:37;;;;;;;4.43;2.90;;;;;;;17.48;41.78;95153.41;5038030;28;20682;-63
2022/04/15 09:01:03;;;;;;;7.53;3.15;;;;;;;17.76;41.27;95153.91;5038283;28;20214;-64
2022/04/15 09:03:28;;;;;;;7.47;4.03;;;;;;;17.89;39.19;95178.19;5036876;28;20227;-63
2022/04/15 09:05:54;;;;;;;6.15;3.70;;;;;;;18.00;39.45;95170.13;5037971;28;20202;-64
2022/04/15 09:08:26;;;;;;;12.32;3.97;;;;;;;18.12;39.10;95171.41;5037921;28;20205;-62
2022/04/15 09:10:56;;;;;;;6.18;3.72;;;;;;;17.97;38.69;95156.81;5037762;28;20202;-62
2022/04/15 09:13:24;;;;;;;7.63;3.17;;;;;;;18.16;38.67;95152.09;5037100;28;20385;-63
2022/04/15 09:15:50;;;;;;;6.47;2.80;;;;;;;18.45;36.12;95197.94;5033028;28;20202;-64
2022/04/15 09:18:36;;;;;;;6.45;2.90;;;;;;;18.74;35.97;95171.63;5033481;28;20215;-62
2022/04/15 09:21:22;;;;;;;5.97;3.25;;;;;;;19.00;35.78;95151.53;5034649;28;20200;-63
2022/04/15 09:23:50;;;;;;;7.68;3.13;;;;;;;19.27;35.21;95144.13;5034770;28;20236;-63
2022/04/15 09:26:16;;;;;;;5.63;3.22;;;;;;;19.59;36.11;95112.22;5034435;28;20198;-65
2022/04/15 09:28:42;;;;;;;8.02;3.50;;;;;;;19.90;37.07;95094.81;5034558;28;20285;-67
2022/04/15 09:31:15;;;;;;;12.02;3.78;;;;;;;19.89;35.02;95118.22;5040066;23;20783;-63
2022/04/15 09:33:53;;;;;;;7.88;3.60;;;;;;;20.03;33.82;95128.59;5050014;28;20213;-63
2022/04/15 09:36:30;;;;;;;5.93;2.90;;;;;;;20.25;33.90;95118.41;5034947;28;20210;-64
2022/04/15 09:38:58;;;;;;;7.47;3.20;;;;;;;20.18;34.40;95086.50;5034748;28;20162;-63
2022/04/15 09:41:25;;;;;;;5.50;2.45;;;;;;;20.49;35.27;95069.03;5034654;28;20280;-66
2022/04/15 09:43:55;;;;;;;8.50;3.20;;;;;;;20.62;33.99;95106.19;5034991;28;20214;-63
2022/04/15 09:46:21;;;;;;;8.20;2.85;;;;;;;20.82;33.34;95096.91;5016588;28;20374;-63
2022/04/15 09:49:07;;;;;;;9.88;3.28;;;;;;;21.04;32.06;95105.53;5032980;28;20206;-64
2022/04/15 09:51:52;;;;;;;9.95;3.05;;;;;;;20.78;32.50;95087.09;5034496;28;20694;-65
2022/04/15 09:54:24;;;;;;;9.77;2.92;;;;;;;21.16;32.50;95087.75;5033153;28;20178;-63
2022/04/15 09:56:57;;;;;;;5.80;2.55;;;;;;;21.27;31.93;95085.47;5034650;28;20679;-64
2022/04/15 09:59:25;;;;;;;8.25;2.92;;;;;;;21.50;31.83;95070.56;5034050;28;20178;-65
2022/04/15 10:01:55;;;;;;;3.90;2.38;;;;;;;21.51;29.09;95116.13;5034384;28;20206;-64
2022/04/15 10:04:23;;;;;;;6.18;2.40;;;;;;;21.60;29.74;95083.97;5040978;23;20233;-64
2022/04/15 10:06:48;;;;;;;5.28;2.53;;;;;;;21.51;30.25;95051.44;5033736;28;20195;-64
2022/04/15 10:09:14;;;;;;;6.07;2.67;;;;;;;21.15;31.39;95035.22;5033876;28;20208;-62
2022/04/15 10:11:44;;;;;;;6.20;2.72;;;;;;;21.04;32.67;94981.41;5033492;28;20233;-65
2022/04/15 10:14:15;;;;;;;6.57;2.88;;;;;;;21.85;30.91;95026.66;5033348;28;20647;-63
2022/04/15 10:16:43;;;;;;;5.60;2.60;;;;;;;22.45;31.81;94998.28;5033592;28;20194;-66
2022/04/15 10:19:10;;;;;;;5.25;3.20;;;;;;;22.52;30.83;95009.47;4999709;28;20186;-65
2022/04/15 10:21:39;;;;;;;3.95;2.70;;;;;;;22.74;29.32;95020.53;5033804;28;20194;-63
2022/04/15 10:24:08;;;;;;;8.13;3.00;;;;;;;22.45;28.85;94993.09;5015975;28;20277;-66
2022/04/15 10:26:38;;;;;;;9.65;2.78;;;;;;;23.05;30.53;94948.16;5033194;28;20717;-63
2022/04/15 10:29:04;;;;;;;5.20;2.42;;;;;;;23.33;28.66;94987.75;5033092;28;20244;-64
2022/04/15 10:31:45;;;;;;;4.80;2.80;;;;;;;23.31;29.03;94963.75;5033223;28;20201;-62
2022/04/15 10:34:21;;;;;;;5.05;2.78;;;;;;;23.66;28.27;94966.94;5015406;28;20229;-65
2022/04/15 10:36:55;;;;;;;5.38;3.25;;;;;;;23.82;27.93;94969.91;5015667;28;20521;-62
2022/04/15 10:39:22;;;;;;;5.03;2.88;;;;;;;23.78;27.65;94960.13;5015476;28;20183;-62
2022/04/15 10:41:48;;;;;;;6.57;2.97;;;;;;;23.63;28.11;94946.59;5015440;28;20293;-65
2022/04/15 10:44:23;;;;;;;5.22;3.05;;;;;;;23.98;28.25;94946.09;5033063;28;20704;-67
2022/04/15 10:46:49;;;;;;;8.35;2.97;;;;;;;24.27;27.24;94962.22;5015196;28;20687;-64
2022/04/15 10:49:23;;;;;;;8.38;3.20;;;;;;;24.71;26.76;94957.81;5032902;28;20190;-63
2022/04/15 10:51:57;;;;;;;6.88;2.90;;;;;;;25.02;28.46;94912.81;5040050;23;20307;-64
2022/04/15 10:54:35;;;;;;;4.90;2.92;;;;;;;25.18;27.03;94942.69;5033126;28;20159;-64
2022/04/15 10:57:02;;;;;;;7.38;3.08;;;;;;;25.11;26.65;94939.38;5033438;28;20817;-62
2022/04/15 11:02:16;;;;;;;8.77;2.90;;;;;;;25.56;26.82;94931.19;5032736;28;20252;-66
2022/04/15 11:04:51;;;;;;;5.70;2.78;;;;;;;25.87;25.72;94937.28;5015260;28;20198;-64
2022/04/15 11:07:27;;;;;;;5.05;2.80;;;;;;;26.07;25.03;94943.91;5032758;28;20240;-63
2022/04/15 11:09:54;;;;;;;7.88;3.13;;;;;;;25.45;25.93;94923.28;5032677;28;20201;-63
2022/04/15 11:12:35;;;;;;;7.88;3.67;;;;;;;25.39;23.71;94963.16;5032469;28;20194;-63
2022/04/15 11:15:02;;;;;;;8.18;3.60;;;;;;;24.78;23.26;94966.41;5032315;28;20227;-64
2022/04/15 11:17:39;;;;;;;8.40;3.40;;;;;;;24.42;23.36;94954.97;5032478;28;20171;-65
2022/04/15 11:20:08;;;;;;;4.68;3.05;;;;;;;24.27;23.05;94942.22;5014544;28;20193;-62
2022/04/15 11:22:41;;;;;;;8.43;2.95;;;;;;;24.86;24.24;94937.53;5014719;28;20185;-65
2022/04/15 11:25:12;;;;;;;5.30;3.00;;;;;;;24.60;23.32;94940.28;5032075;28;20273;-65
2022/04/15 11:27:39;;;;;;;7.38;3.15;;;;;;;24.85;24.95;94899.50;5014214;28;20174;-62
2022/04/15 11:30:15;;;;;;;6.10;2.88;;;;;;;24.62;25.09;94895.84;5031836;28;20213;-65
2022/04/15 11:32:56;;;;;;;6.32;2.78;;;;;;;25.06;24.28;94903.56;5032401;28;20174;-63
2022/04/15 11:35:30;;;;;;;6.00;2.80;;;;;;;25.32;23.38;94924.16;5014471;28;20699;-63
2022/04/15 11:38:16;;;;;;;7.72;2.85;;;;;;;25.46;23.58;94906.66;5013962;28;20178;-66